Flight Track Log - Related Links

Times and Time Zones

All times are in EDT time to prevent confusion due to time zone crossing. See the DAL863 flight status page for this flight to view local times or setup timezone preferences in your user account.

Time Position Orientation Groundspeed Altitude Reporting Facility
EDT Latitude Longitude Course Direction KTS MPH feet Rate Location/Type
Sun 12:11:05 PM 40.6100 -73.8903 270° West 236 272 2,800  Level New York Center
Sun 12:12:00 PM 40.9707 -73.7667 North  Level FlightAware Approximate
Sun 12:12:05 PM 40.5586 -73.8606 156° South 276 318 5,400  Level New York Center
Sun 12:13:00 PM 41.0831 -73.7667 North  Level FlightAware Approximate
Sun 12:13:18 PM 40.5833 -73.7500 74° East 257 296 6,000  Level New York TRACON
Sun 12:14:00 PM 41.1200 -73.8901 304° West  Level FlightAware Approximate
Sun 12:14:18 PM 40.6333 -73.6667 52° Northeast 264 304 8,100  Level New York TRACON
Sun 12:15:00 PM 41.1500 -74.0312 270° West  Level FlightAware Approximate
Sun 12:15:18 PM 40.6667 -73.5667 66° East 296 341 10,500  Level New York TRACON
Sun 12:16:00 PM 41.1667 -74.1738 270° West  Level FlightAware Approximate
Sun 12:16:18 PM 40.7500 -73.5500 North 329 379 11,500  Level New York TRACON
Sun 12:17:18 PM 40.8500 -73.5833 346° North 345 397 13,900 2,321 Climbing New York TRACON
Sun 12:19:06 PM 41.0025 -73.6994 330° Northwest 374 430 18,000 1,964 Climbing New York Center
Sun 12:20:03 PM 41.0944 -73.7667 331° Northwest 374 430 19,300 1,576 Climbing New York Center
Sun 12:21:04 PM 41.1350 -73.8897 294° West 351 404 21,100 1,686 Climbing New York Center
Sun 12:22:04 PM 41.1522 -74.0256 280° West 351 404 22,700 1,587 Climbing New York Center
Sun 12:23:05 PM 41.1294 -74.1619 258° West 357 411 24,300 1,664 Climbing New York Center
Sun 12:24:03 PM 41.1006 -74.2956 254° West 362 417 26,000 1,563 Climbing New York Center
Sun 12:25:04 PM 41.0756 -74.4344 257° West 375 432 27,400 1,339 Climbing New York Center
Sun 12:26:04 PM 41.0483 -74.5761 256° West 393 452 28,700 1,488 Climbing New York Center
Sun 12:27:05 PM 41.0186 -74.7175 254° West 400 460 30,400 1,736 Climbing New York Center
Sun 12:28:05 PM 40.9931 -74.8561 256° West 400 460 32,200 1,576 Climbing New York Center
Sun 12:29:03 PM 40.9633 -74.9889 254° West 389 448 33,500 1,210 Climbing New York Center
Sun 12:30:04 PM 40.9297 -75.1158 251° West 383 441 34,600 1,041 Climbing New York Center
Sun 12:31:04 PM 40.8953 -75.2539 252° West 378 435 35,600 700 Climbing New York Center
Sun 12:32:04 PM 40.8694 -75.3867 256° West 383 441 36,000 200 Climbing New York Center
Sun 12:33:04 PM 40.8392 -75.5189 253° West 383 441 36,000  Level New York Center
Sun 12:34:05 PM 40.8044 -75.6508 251° West 383 441 36,000  Level New York Center
Sun 12:35:06 PM 40.7761 -75.7831 254° West 377 434 36,000  Level New York Center
Sun 12:36:03 PM 40.7433 -75.9150 252° West 377 434 36,000  Level New York Center
Sun 12:37:03 PM 40.7125 -76.0467 253° West 377 434 36,000  Level New York Center
Sun 12:38:04 PM 40.6794 -76.1811 252° West 377 434 36,000  Level New York Center
Sun 12:39:04 PM 40.6731 -76.3147 266° West 363 418 36,000  Level New York Center
Sun 12:40:05 PM 40.6956 -76.4561 282° West 377 434 36,000  Level New York Center
Sun 12:41:03 PM 40.7158 -76.5975 281° West 389 448 36,000  Level New York Center
Sun 12:42:04 PM 40.7381 -76.7364 282° West 394 453 36,000  Level New York Center
Sun 12:43:04 PM 40.7561 -76.8750 280° West 389 448 36,000  Level New York Center
Sun 12:44:05 PM 40.7781 -77.0139 282° West 389 448 36,000  Level New York Center
Sun 12:45:05 PM 40.7975 -77.1556 280° West 395 455 36,000  Level New York Center
Sun 12:46:03 PM 40.8169 -77.2944 281° West 395 455 36,000  Level New York Center
Sun 12:47:03 PM 40.8375 -77.4144 283° West 395 455 36,000  Level New York Center
Sun 12:49:04 PM 40.8750 -77.7025 280° West 399 459 36,000  Level Cleveland Center
Sun 12:50:04 PM 40.8931 -77.8417 280° West 399 459 36,000  Level Cleveland Center
Sun 12:51:04 PM 40.9131 -77.9811 281° West 393 452 36,000  Level Cleveland Center
Sun 12:52:04 PM 40.9308 -78.1233 279° West 393 452 36,000  Level Cleveland Center
Sun 12:53:04 PM 40.9506 -78.2656 280° West 388 447 36,000  Level Cleveland Center
Sun 12:54:04 PM 40.9678 -78.4053 279° West 388 447 36,000  Level Cleveland Center
Sun 12:55:04 PM 40.9872 -78.5475 280° West 388 447 36,000  Level Cleveland Center
Sun 12:56:04 PM 41.0042 -78.6956 279° West 393 452 36,000  Level Cleveland Center
Sun 12:57:04 PM 41.0211 -78.8383 279° West 393 452 36,000  Level Cleveland Center
Sun 12:58:04 PM 41.0358 -78.9839 278° West 393 452 36,000  Level Cleveland Center
Sun 12:59:04 PM 41.0544 -79.1264 280° West 393 452 36,000  Level Cleveland Center
Sun 01:00:04 PM 41.0686 -79.2722 277° West 393 452 36,000  Level Cleveland Center
Sun 01:01:04 PM 41.0847 -79.4150 279° West 393 452 36,000  Level Cleveland Center
Sun 01:02:04 PM 41.1028 -79.5581 280° West 398 458 36,000  Level Cleveland Center
Sun 01:03:04 PM 41.1167 -79.7039 277° West 398 458 36,000  Level Cleveland Center
Sun 01:04:04 PM 41.1322 -79.8497 278° West 398 458 36,000  Level Cleveland Center
Sun 01:05:04 PM 41.1475 -79.9958 278° West 409 471 36,000  Level Cleveland Center
Sun 01:06:04 PM 41.1669 -80.1392 280° West 404 465 36,000  Level Cleveland Center
Sun 01:07:04 PM 41.1800 -80.2853 277° West 404 465 36,000  Level Cleveland Center
Sun 01:08:04 PM 41.1950 -80.4506 277° West 404 465 36,000  Level Cleveland Center
Sun 01:09:04 PM 41.2094 -80.5942 278° West 404 465 36,000  Level Cleveland Center
Sun 01:10:04 PM 41.2239 -80.7406 278° West 404 465 36,000  Level Cleveland Center
Sun 01:11:04 PM 41.2383 -80.8897 277° West 404 465 36,000  Level Cleveland Center
Sun 01:12:04 PM 41.2525 -81.0361 277° West 399 459 36,000  Level Cleveland Center
Sun 01:13:04 PM 41.2664 -81.1825 277° West 405 466 36,000  Level Cleveland Center
Sun 01:14:04 PM 41.2822 -81.3292 278° West 405 466 36,000  Level Cleveland Center
Sun 01:15:04 PM 41.2958 -81.4592 278° West 405 466 36,000  Level Cleveland Center
Sun 01:16:04 PM 41.3111 -81.6086 278° West 405 466 36,000  Level Cleveland Center
Sun 01:17:04 PM 41.3244 -81.7556 277° West 405 466 36,000  Level Cleveland Center
Sun 01:18:04 PM 41.3375 -81.9022 277° West 405 466 36,000  Level Cleveland Center
Sun 01:19:04 PM 41.3522 -82.0519 278° West 412 474 36,000  Level Cleveland Center
Sun 01:20:04 PM 41.3625 -82.2208 275° West 412 474 36,000  Level Cleveland Center
Sun 01:21:04 PM 41.3686 -82.3678 273° West 411 473 36,000  Level Cleveland Center
Sun 01:22:04 PM 41.3767 -82.5203 274° West 411 473 36,000  Level Cleveland Center
Sun 01:23:04 PM 41.3847 -82.6533 275° West 405 466 36,000  Level Cleveland Center
Sun 01:24:04 PM 41.3944 -82.8003 275° West 405 466 36,000  Level Cleveland Center
Sun 01:25:04 PM 41.3997 -82.9500 273° West 405 466 36,000  Level Cleveland Center
Sun 01:26:04 PM 41.4092 -83.0969 275° West 405 466 36,000  Level Cleveland Center
Sun 01:27:04 PM 41.4178 -83.2608 274° West 410 472 36,000  Level Cleveland Center
Sun 01:28:04 PM 41.4247 -83.4106 274° West 405 466 36,000  Level Cleveland Center
Sun 01:29:04 PM 41.4292 -83.5606 272° West 405 466 36,000  Level Cleveland Center
Sun 01:30:04 PM 41.4400 -83.7078 276° West 405 466 36,000  Level Cleveland Center
Sun 01:31:04 PM 41.4461 -83.8575 273° West 405 466 36,000  Level Cleveland Center
Sun 01:32:04 PM 41.4519 -84.0103 273° West 405 466 36,000 200 Level Cleveland Center
Sun 01:33:04 PM 41.4600 -84.1633 274° West 405 466 36,400 600 Climbing Cleveland Center
Sun 01:34:54 PM 41.4656 -84.4183 272° West 411 473 37,700 558 Climbing Chicago Center
Sun 01:35:56 PM 41.4683 -84.5725 271° West 415 478 38,000 145 Climbing Chicago Center
Sun 01:36:58 PM 41.4689 -84.7253 270° West 413 475 38,000  Level Chicago Center
Sun 01:38:00 PM 41.4697 -84.9086 270° West 413 475 38,000  Level Chicago Center
Sun 01:39:02 PM 41.4711 -85.0622 271° West 413 475 38,000  Level Chicago Center
Sun 01:40:04 PM 41.4708 -85.2161 270° West 414 476 38,000  Level Chicago Center
Sun 01:41:06 PM 41.4714 -85.3725 270° West 415 478 38,000  Level Chicago Center
Sun 01:42:08 PM 41.4717 -85.5289 270° West 414 476 38,000  Level Chicago Center
Sun 01:43:10 PM 41.4714 -85.6828 270° West 411 473 38,000  Level Chicago Center
Sun 01:44:12 PM 41.4714 -85.8356 270° West 412 474 38,000  Level Chicago Center
Sun 01:45:14 PM 41.4708 -85.9897 270° West 416 479 38,000  Level Chicago Center
Sun 01:46:16 PM 41.4700 -86.1742 270° West 416 479 38,000  Level Chicago Center
Sun 01:47:18 PM 41.4700 -86.3275 270° West 416 479 38,000  Level Chicago Center
Sun 01:48:20 PM 41.4692 -86.4811 270° West 416 479 38,000  Level Chicago Center
Sun 01:49:22 PM 41.4667 -86.6342 269° West 415 478 38,000  Level Chicago Center
Sun 01:50:24 PM 41.4661 -86.7950 270° West 419 482 38,000  Level Chicago Center
Sun 01:51:26 PM 41.4650 -86.9486 269° West 418 481 38,000  Level Chicago Center
Sun 01:52:27 PM 41.4628 -87.1025 269° West 418 481 38,000  Level Chicago Center
Sun 01:53:29 PM 41.4603 -87.2878 269° West 421 484 38,000  Level Chicago Center
Sun 01:54:31 PM 41.4586 -87.4425 269° West 420 483 38,000  Level Chicago Center
Sun 01:55:33 PM 41.4561 -87.5961 269° West 418 481 38,000  Level Chicago Center
Sun 01:56:35 PM 41.4536 -87.7506 269° West 419 482 38,000  Level Chicago Center
Sun 01:57:37 PM 41.4506 -87.9042 269° West 419 482 38,000  Level Chicago Center
Sun 01:58:39 PM 41.4475 -88.0814 269° West 420 483 38,000  Level Chicago Center
Sun 01:59:42 PM 41.4433 -88.2333 268° West 414 476 38,000  Level Chicago Center
Sun 02:00:43 PM 41.4406 -88.3797 269° West 413 475 38,000  Level Chicago Center
Sun 02:01:45 PM 41.4358 -88.5633 268° West 415 478 38,000  Level Chicago Center
Sun 02:02:47 PM 41.4317 -88.7172 268° West 416 479 38,000  Level Chicago Center
Sun 02:03:49 PM 41.4281 -88.8719 268° West 418 481 38,000  Level Chicago Center
Sun 02:04:51 PM 41.4228 -89.0258 267° West 419 482 38,000  Level Chicago Center
Sun 02:05:53 PM 41.4181 -89.1794 268° West 418 481 38,000  Level Chicago Center
Sun 02:06:55 PM 41.4153 -89.3453 269° West 423 487 38,000  Level Chicago Center
Sun 02:07:56 PM 41.4097 -89.5008 267° West 423 487 38,000  Level Chicago Center
Sun 02:08:58 PM 41.4044 -89.6564 267° West 423 487 38,000  Level Chicago Center
Sun 02:10:00 PM 41.3981 -89.8450 267° West 425 489 38,000  Level Chicago Center
Sun 02:11:02 PM 41.3928 -90.0014 267° West 425 489 38,000  Level Chicago Center
Sun 02:12:04 PM 41.3875 -90.1578 267° West 425 489 38,000  Level Chicago Center
Sun 02:13:06 PM 41.3811 -90.3147 267° West 426 490 38,000  Level Chicago Center
Sun 02:14:08 PM 41.3747 -90.4697 267° West 422 486 38,000  Level Chicago Center
Sun 02:15:09 PM 41.3667 -90.6308 266° West 436 502 38,000  Level Chicago Center
Sun 02:16:11 PM 41.3575 -90.8206 266° West 431 496 38,000  Level Chicago Center
Sun 02:17:13 PM 41.3506 -90.9775 267° West 428 493 38,000  Level Chicago Center
Sun 02:18:15 PM 41.3436 -91.1361 267° West 429 494 38,000  Level Chicago Center
Sun 02:19:17 PM 41.3364 -91.2919 267° West 425 489 38,000  Level Chicago Center
Sun 02:20:19 PM 41.3286 -91.4419 266° West 426 490 38,000  Level Chicago Center
Sun 02:21:21 PM 41.3186 -91.6283 266° West 424 488 38,000  Level Chicago Center
Sun 02:22:22 PM 41.3106 -91.7831 266° West 422 486 38,000  Level Chicago Center
Sun 02:23:24 PM 41.3022 -91.9375 266° West 420 483 38,000  Level Chicago Center
Sun 02:24:26 PM 41.2936 -92.0933 266° West 423 487 38,000  Level Chicago Center
Sun 02:25:28 PM 41.2850 -92.2467 266° West 419 482 38,000  Level Chicago Center
Sun 02:26:30 PM 41.2753 -92.4264 266° West 420 483 38,000  Level Chicago Center
Sun 02:27:32 PM 41.2653 -92.5803 265° West 422 486 38,000  Level Chicago Center
Sun 02:28:34 PM 41.2567 -92.7314 266° West 418 481 38,000  Level Chicago Center
Sun 02:28:51 PM 41.2550 -92.7631 266° West 417 480 38,000  Level Minneapolis Center
Sun 02:29:52 PM 41.2431 -92.9464 265° West 418 481 38,000  Level Minneapolis Center
Sun 02:30:54 PM 41.2333 -93.0975 265° West 417 480 38,000  Level Minneapolis Center
Sun 02:31:56 PM 41.2228 -93.2494 265° West 417 480 38,000  Level Minneapolis Center
Sun 02:32:58 PM 41.2128 -93.4017 265° West 418 481 38,000  Level Minneapolis Center
Sun 02:33:59 PM 41.2019 -93.5550 265° West 421 484 38,000  Level Minneapolis Center
Sun 02:35:01 PM 41.1889 -93.7367 265° West 419 482 38,000  Level Minneapolis Center
Sun 02:36:03 PM 41.1792 -93.8850 265° West 415 478 38,000  Level Minneapolis Center
Sun 02:37:05 PM 41.1694 -94.0347 265° West 412 474 38,000  Level Minneapolis Center
Sun 02:38:06 PM 41.1586 -94.1872 265° West 418 481 38,000  Level Minneapolis Center
Sun 02:39:08 PM 41.1475 -94.3450 265° West 417 480 38,000  Level Minneapolis Center
Sun 02:40:10 PM 41.1361 -94.4892 264° West 416 479 38,000  Level Minneapolis Center
Sun 02:41:12 PM 41.1231 -94.6483 264° West 415 478 38,000  Level Minneapolis Center
Sun 02:42:13 PM 41.1089 -94.8303 264° West 414 476 38,000  Level Minneapolis Center
Sun 02:43:15 PM 41.0961 -94.9806 264° West 412 474 38,000  Level Minneapolis Center
Sun 02:44:17 PM 41.0833 -95.1314 264° West 411 473 38,000  Level Minneapolis Center
Sun 02:45:18 PM 41.0711 -95.2808 264° West 410 472 38,000  Level Minneapolis Center
Sun 02:46:20 PM 41.0583 -95.4331 264° West 412 474 38,000  Level Minneapolis Center
Sun 02:47:22 PM 41.0447 -95.5856 263° West 414 476 38,000  Level Minneapolis Center
Sun 02:48:24 PM 41.0311 -95.7364 263° West 411 473 38,000  Level Minneapolis Center
Sun 02:49:25 PM 41.0178 -95.8897 263° West 414 476 38,000  Level Minneapolis Center
Sun 02:50:27 PM 41.0036 -96.0431 263° West 415 478 38,000  Level Minneapolis Center
Sun 02:51:29 PM 40.9903 -96.1964 263° West 416 479 38,000  Level Minneapolis Center
Sun 02:52:30 PM 40.9733 -96.3789 263° West 415 478 38,000  Level Minneapolis Center
Sun 02:53:32 PM 40.9594 -96.5303 263° West 414 476 38,000  Level Minneapolis Center
Sun 02:54:34 PM 40.9450 -96.6803 263° West 412 474 38,000  Level Minneapolis Center
Sun 02:55:35 PM 40.9300 -96.8289 262° West 410 472 38,000  Level Minneapolis Center
Sun 02:56:37 PM 40.9147 -96.9789 262° West 409 471 38,000  Level Minneapolis Center
Sun 02:57:39 PM 40.9003 -97.1289 263° West 411 473 38,000  Level Minneapolis Center
Sun 02:58:40 PM 40.8850 -97.2750 262° West 407 468 38,000  Level Minneapolis Center
Sun 02:59:42 PM 40.8703 -97.4208 262° West 405 466 38,000  Level Minneapolis Center
Sun 03:00:43 PM 40.8522 -97.5997 262° West 406 467 38,000  Level Minneapolis Center
Sun 03:01:45 PM 40.8364 -97.7489 262° West 408 470 38,000  Level Minneapolis Center
Sun 03:02:46 PM 40.8197 -97.8992 262° West 410 472 38,000  Level Minneapolis Center
Sun 03:03:48 PM 40.8036 -98.0500 262° West 412 474 38,000  Level Minneapolis Center
Sun 03:04:50 PM 40.7872 -98.2014 262° West 414 476 38,000  Level Minneapolis Center
Sun 03:05:51 PM 40.7700 -98.3533 262° West 415 478 38,000  Level Minneapolis Center
Sun 03:06:53 PM 40.7533 -98.5050 262° West 415 478 38,000  Level Minneapolis Center
Sun 03:07:54 PM 40.7392 -98.6256 261° West 414 476 38,000  Level Minneapolis Center
Sun 03:08:56 PM 40.7186 -98.8064 262° West 412 474 38,000  Level Minneapolis Center
Sun 03:09:57 PM 40.7053 -98.9258 262° West 410 472 38,000  Level Minneapolis Center
Sun 03:10:59 PM 40.6847 -99.1039 261° West 408 470 38,000  Level Minneapolis Center
Sun 03:11:25 PM 40.6739 -99.1922 261° West 407 468 38,000  Level Denver Center
Sun 03:12:27 PM 40.6561 -99.3389 261° West 405 466 38,000  Level Denver Center
Sun 03:13:29 PM 40.6397 -99.4833 262° West 401 461 38,000  Level Denver Center
Sun 03:14:30 PM 40.6197 -99.6272 260° West 399 459 38,000  Level Denver Center
Sun 03:15:32 PM 40.6025 -99.7731 261° West 401 461 38,000  Level Denver Center
Sun 03:16:34 PM 40.5836 -99.9256 261° West 402 463 38,000  Level Denver Center
Sun 03:17:36 PM 40.5669 -100.0647 261° West 401 461 38,000  Level Denver Center
Sun 03:18:38 PM 40.5458 -100.2289 260° West 405 466 38,000  Level Denver Center
Sun 03:19:40 PM 40.5267 -100.3689 260° West 404 465 38,000  Level Denver Center
Sun 03:20:42 PM 40.5056 -100.5347 261° West 409 471 38,000  Level Denver Center
Sun 03:21:44 PM 40.4869 -100.6753 260° West 406 467 38,000  Level Denver Center
Sun 03:22:46 PM 40.4647 -100.8419 260° West 411 473 38,000  Level Denver Center
Sun 03:23:47 PM 40.4447 -100.9839 260° West 413 475 38,000  Level Denver Center
Sun 03:24:49 PM 40.4278 -101.1264 261° West 412 474 38,000  Level Denver Center
Sun 03:25:51 PM 40.4044 -101.2933 260° West 415 478 38,000  Level Denver Center
Sun 03:26:53 PM 40.3847 -101.4353 260° West 414 476 38,000  Level Denver Center
Sun 03:27:55 PM 40.3603 -101.6003 259° West 412 474 38,000  Level Denver Center
Sun 03:28:57 PM 40.3408 -101.7428 260° West 414 476 38,000  Level Denver Center
Sun 03:29:59 PM 40.3181 -101.9097 260° West 416 479 38,000  Level Denver Center
Sun 03:31:01 PM 40.2967 -102.0503 259° West 412 474 38,000  Level Denver Center
Sun 03:32:03 PM 40.2717 -102.2156 259° West 414 476 38,000  Level Denver Center
Sun 03:33:05 PM 40.2522 -102.3567 260° West 413 475 38,000  Level Denver Center
Sun 03:34:07 PM 40.2314 -102.4981 259° West 412 474 38,000  Level Denver Center
Sun 03:35:08 PM 40.2064 -102.6633 259° West 416 479 38,000  Level Denver Center
Sun 03:36:10 PM 40.1844 -102.8069 259° West 414 476 38,000  Level Denver Center
Sun 03:37:12 PM 40.1619 -102.9544 259° West 412 474 38,000  Level Denver Center
Sun 03:38:14 PM 40.1389 -103.1014 258° West 409 471 38,000  Level Denver Center
Sun 03:39:16 PM 40.1139 -103.2742 259° West 412 474 38,000  Level Denver Center
Sun 03:40:18 PM 40.0903 -103.4217 258° West 412 474 38,000  Level Denver Center
Sun 03:41:20 PM 40.0661 -103.5681 258° West 410 472 38,000  Level Denver Center
Sun 03:42:23 PM 40.0436 -103.7142 259° West 409 471 38,000  Level Denver Center
Sun 03:43:24 PM 40.0203 -103.8636 259° West 412 474 38,000  Level Denver Center
Sun 03:44:26 PM 39.9961 -104.0092 258° West 406 467 38,000  Level Denver Center
Sun 03:45:28 PM 39.9725 -104.1567 258° West 410 472 38,000  Level Denver Center
Sun 03:46:30 PM 39.9447 -104.3247 258° West 405 466 38,000  Level Denver Center
Sun 03:47:32 PM 39.9211 -104.4697 258° West 407 468 38,000  Level Denver Center
Sun 03:48:34 PM 39.8972 -104.6133 258° West 405 466 38,000  Level Denver Center
Sun 03:49:35 PM 39.8697 -104.7522 256° West 398 458 38,000  Level Denver Center
Sun 03:50:37 PM 39.8422 -104.8953 256° West 410 472 38,000  Level Denver Center
Sun 03:51:39 PM 39.8156 -105.0325 256° West 393 452 38,000  Level Denver Center
Sun 03:52:41 PM 39.7828 -105.2003 256° West 404 465 38,000  Level Denver Center
Sun 03:53:43 PM 39.7550 -105.3397 256° West 397 457 38,000  Level Denver Center
Sun 03:54:45 PM 39.7272 -105.4792 256° West 395 455 38,000  Level Denver Center
Sun 03:55:47 PM 39.6989 -105.6194 255° West 395 455 38,000  Level Denver Center
Sun 03:56:49 PM 39.6719 -105.7592 256° West 396 456 38,000  Level Denver Center
Sun 03:57:50 PM 39.6439 -105.8992 255° West 394 453 38,000  Level Denver Center
Sun 03:58:52 PM 39.6147 -106.0411 255° West 402 463 38,000  Level Denver Center
Sun 03:59:54 PM 39.5839 -106.2022 256° West 402 463 38,000  Level Denver Center
Sun 04:00:56 PM 39.5539 -106.3436 255° West 405 466 38,000  Level Denver Center
Sun 04:01:58 PM 39.5247 -106.4847 255° West 406 467 38,000  Level Denver Center
Sun 04:03:00 PM 39.4961 -106.6236 255° West 404 465 38,000  Level Denver Center
Sun 04:04:02 PM 39.4628 -106.7825 255° West 407 468 38,000  Level Denver Center
Sun 04:05:04 PM 39.4336 -106.9144 254° West 401 461 38,000  Level Denver Center
Sun 04:06:06 PM 39.3958 -107.0686 252° West 401 461 38,000  Level Denver Center
Sun 04:07:08 PM 39.3622 -107.2014 252° West 405 466 38,000  Level Denver Center
Sun 04:08:09 PM 39.3289 -107.3328 252° West 403 464 38,000  Level Denver Center
Sun 04:09:11 PM 39.2897 -107.4853 252° West 401 461 38,000  Level Denver Center
Sun 04:10:13 PM 39.2561 -107.6147 251° West 398 458 38,000  Level Denver Center
Sun 04:11:15 PM 39.2192 -107.7633 252° West 390 449 38,000  Level Denver Center
Sun 04:12:17 PM 39.1844 -107.8939 251° West 395 455 38,000  Level Denver Center
Sun 04:13:19 PM 39.1472 -108.0422 252° West 392 451 38,000  Level Denver Center
Sun 04:14:20 PM 39.1128 -108.1708 251° West 393 452 38,000  Level Denver Center
Sun 04:15:22 PM 39.0797 -108.2992 252° West 393 452 38,000  Level Denver Center
Sun 04:16:24 PM 39.0444 -108.4281 251° West 396 456 38,000  Level Denver Center
Sun 04:17:26 PM 39.0050 -108.5808 252° West 399 459 38,000  Level Denver Center
Sun 04:18:28 PM 38.9639 -108.7325 251° West 401 461 38,000  Level Denver Center
Sun 04:19:30 PM 38.9289 -108.8639 251° West 403 464 38,000  Level Denver Center
Sun 04:20:31 PM 38.8883 -109.0153 251° West 401 461 38,000  Level Denver Center
Sun 04:21:33 PM 38.8531 -109.1453 251° West 403 464 38,000  Level Denver Center
Sun 04:22:35 PM 38.8175 -109.2767 251° West 407 468 38,000  Level Denver Center
Sun 04:23:37 PM 38.7753 -109.4292 250° West 406 467 38,000  Level Denver Center
Sun 04:24:39 PM 38.7394 -109.5608 251° West 409 471 38,000  Level Denver Center
Sun 04:25:40 PM 38.6961 -109.7100 250° West 401 461 38,000  Level Denver Center
Sun 04:26:42 PM 38.6600 -109.8433 251° West 411 473 38,000  Level Denver Center
Sun 04:27:44 PM 38.6161 -109.9964 250° West 409 471 38,000 221 Level Denver Center
Sun 04:28:58 PM 38.5747 -110.1486 251° West 407 468 38,500 938 Climbing Denver Center
Sun 04:29:52 PM 38.5367 -110.2731 249° West 393 452 40,000 783 Climbing Salt Lake Center
Sun 04:30:53 PM 38.4694 -110.3767 230° Southwest 393 452 40,000  Level Salt Lake Center
Sun 04:32:03 PM 38.3925 -110.5275 237° Southwest 397 457 40,000  Level Denver Center
Sun 04:33:05 PM 38.3344 -110.6414 237° Southwest 400 460 40,000  Level Denver Center
Sun 04:33:58 PM 38.2717 -110.7553 235° Southwest 407 468 40,000  Level Salt Lake Center
Sun 04:34:59 PM 38.2086 -110.8683 235° Southwest 409 471 40,000  Level Salt Lake Center
Sun 04:36:01 PM 38.1386 -110.9947 235° Southwest 409 471 40,000  Level Salt Lake Center
Sun 04:37:03 PM 38.0728 -111.1119 235° Southwest 408 470 40,000  Level Salt Lake Center
Sun 04:38:04 PM 38.0064 -111.2297 234° Southwest 410 472 40,000  Level Salt Lake Center
Sun 04:39:06 PM 37.9381 -111.3489 234° Southwest 417 480 40,000  Level Salt Lake Center
Sun 04:39:41 PM 37.8972 -111.4200 234° Southwest 417 480 40,000  Level Denver Center
Sun 04:40:07 PM 37.8711 -111.4683 236° Southwest 416 479 40,000  Level Salt Lake Center
Sun 04:41:09 PM 37.8033 -111.5872 234° Southwest 416 479 40,000  Level Salt Lake Center
Sun 04:42:10 PM 37.7336 -111.7036 233° Southwest 416 479 40,000  Level Salt Lake Center
Sun 04:43:12 PM 37.6550 -111.8431 235° Southwest 408 470 40,000  Level Salt Lake Center
Sun 04:44:14 PM 37.5875 -111.9586 234° Southwest 408 470 40,000  Level Salt Lake Center
Sun 04:45:15 PM 37.5208 -112.0728 234° Southwest 405 466 40,000  Level Salt Lake Center
Sun 04:46:17 PM 37.4539 -112.1878 234° Southwest 404 465 40,000  Level Salt Lake Center
Sun 04:47:19 PM 37.3875 -112.3017 234° Southwest 403 464 40,000  Level Salt Lake Center
Sun 04:47:39 PM 37.3614 -112.3467 234° Southwest 397 457 40,000  Level Los Angeles Center
Sun 04:48:20 PM 37.3208 -112.4136 233° Southwest 400 460 40,000  Level Salt Lake Center
Sun 04:48:41 PM 37.2939 -112.4583 233° Southwest 397 457 40,000  Level Los Angeles Center
Sun 04:49:44 PM 37.2269 -112.5725 234° Southwest 401 461 40,000  Level Los Angeles Center
Sun 04:50:23 PM 37.1869 -112.6411 234° Southwest 402 463 40,000  Level Salt Lake Center
Sun 04:51:25 PM 37.1183 -112.7558 233° Southwest 404 465 40,000  Level Salt Lake Center
Sun 04:51:48 PM 37.0908 -112.8033 234° Southwest 408 470 40,000  Level Los Angeles Center
Sun 04:52:50 PM 37.0206 -112.9200 233° Southwest 414 476 40,000  Level Los Angeles Center
Sun 04:53:52 PM 36.9367 -113.0603 233° Southwest 418 481 40,000  Level Los Angeles Center
Sun 04:54:54 PM 36.8669 -113.1769 233° Southwest 418 481 40,000  Level Los Angeles Center
Sun 04:55:56 PM 36.7975 -113.2939 233° Southwest 418 481 40,000  Level Los Angeles Center
Sun 04:56:58 PM 36.7272 -113.4092 233° Southwest 418 481 40,000  Level Los Angeles Center
Sun 04:58:00 PM 36.6578 -113.5244 233° Southwest 418 481 40,000  Level Los Angeles Center
Sun 04:59:02 PM 36.5897 -113.6372 233° Southwest 411 473 40,000  Level Los Angeles Center
Sun 05:00:04 PM 36.5075 -113.7708 233° Southwest 407 468 40,000  Level Los Angeles Center
Sun 05:01:07 PM 36.4406 -113.8808 233° Southwest 402 463 40,000  Level Los Angeles Center
Sun 05:02:09 PM 36.3731 -113.9922 233° Southwest 404 465 40,000  Level Los Angeles Center
Sun 05:03:11 PM 36.3042 -114.1031 232° Southwest 403 464 40,000  Level Los Angeles Center
Sun 05:04:13 PM 36.2353 -114.2144 233° Southwest 406 467 40,000  Level Los Angeles Center
Sun 05:05:15 PM 36.1656 -114.3278 233° Southwest 410 472 40,000  Level Los Angeles Center
Sun 05:06:17 PM 36.0944 -114.4394 232° Southwest 412 474 40,000  Level Los Angeles Center
Sun 05:07:19 PM 36.0114 -114.5742 233° Southwest 410 472 40,000  Level Los Angeles Center
Sun 05:08:21 PM 35.9419 -114.6858 232° Southwest 409 471 40,000  Level Los Angeles Center
Sun 05:09:24 PM 35.8711 -114.7964 232° Southwest 409 471 40,000  Level Los Angeles Center
Sun 05:10:26 PM 35.8014 -114.9067 232° Southwest 408 470 40,000  Level Los Angeles Center
Sun 05:11:28 PM 35.7314 -115.0186 232° Southwest 411 473 40,000  Level Los Angeles Center
Sun 05:12:30 PM 35.6617 -115.1297 232° Southwest 410 472 40,000  Level Los Angeles Center
Sun 05:13:32 PM 35.5900 -115.2422 232° Southwest 413 475 40,000  Level Los Angeles Center
Sun 05:14:34 PM 35.5042 -115.3769 232° Southwest 415 478 40,000  Level Los Angeles Center
Sun 05:15:36 PM 35.4322 -115.4867 231° Southwest 414 476 40,000 -339 Level Los Angeles Center
Sun 05:16:38 PM 35.3628 -115.5953 232° Southwest 413 475 39,300 -871 Descending Los Angeles Center
Sun 05:17:40 PM 35.2906 -115.7069 232° Southwest 417 480 38,200 -1,210 Descending Los Angeles Center
Sun 05:18:42 PM 35.2178 -115.8208 232° Southwest 421 484 36,800 -1,104 Descending Los Angeles Center
Sun 05:19:45 PM 35.1408 -115.9358 231° Southwest 432 497 35,900 -864 Descending Los Angeles Center
Sun 05:20:47 PM 35.0497 -116.0778 232° Southwest 440 506 35,000 -435 Descending Los Angeles Center
Sun 05:21:49 PM 34.9733 -116.1931 231° Southwest 439 505 35,000  Level Los Angeles Center
Sun 05:22:51 PM 34.8972 -116.3117 232° Southwest 443 510 35,000 -290 Level Los Angeles Center
Sun 05:23:53 PM 34.8033 -116.4117 221° Southwest 454 522 34,400 -823 Descending Los Angeles Center
Sun 05:24:55 PM 34.7078 -116.5103 220° Southwest 451 519 33,300 -1,065 Descending Los Angeles Center
Sun 05:25:57 PM 34.6092 -116.6075 219° Southwest 454 522 32,200 -2,177 Descending Los Angeles Center
Sun 05:26:59 PM 34.4900 -116.7286 220° Southwest 457 526 28,800 -3,145 Descending Los Angeles Center
Sun 05:28:01 PM 34.3914 -116.8244 219° Southwest 460 529 25,700 -2,855 Descending Los Angeles Center
Sun 05:29:03 PM 34.2956 -116.9200 219° Southwest 449 517 22,900 -2,619 Descending Los Angeles Center
Sun 05:30:07 PM 34.2025 -117.0117 219° Southwest 435 501 20,200 -1,887 Descending Los Angeles Center
Sun 05:31:07 PM 34.1200 -117.0986 221° Southwest 402 463 19,000 -847 Descending Los Angeles Center
Sun 05:31:32 PM 34.0833 -117.1500 229° Southwest 361 415 19,000 -1,271 Level Southern California TRACON
Sun 05:32:32 PM 34.0500 -117.2667 251° West 352 405 17,200 -1,850 Descending Southern California TRACON
Sun 05:33:32 PM 34.0333 -117.3833 260° West 342 394 15,300 -1,952 Descending Southern California TRACON
Sun 05:34:38 PM 34.0167 -117.5000 260° West 327 376 13,100 -1,905 Descending Southern California TRACON
Sun 05:35:38 PM 34.0167 -117.6167 270° West 421 484 11,300 -1,500 Descending Southern California TRACON
Sun 05:36:38 PM 34.0000 -117.7167 259° West 303 349 10,100 -1,200 Descending Southern California TRACON
Sun 05:37:38 PM 34.0000 -117.8167 270° West 279 321 8,900 -1,250 Descending Southern California TRACON
Sun 05:38:38 PM 33.9833 -117.9000 256° West 289 333 7,600 -1,150 Descending Southern California TRACON
Sun 05:39:38 PM 33.9833 -118.0000 270° West 274 315 6,600 -1,240 Descending Southern California TRACON
Sun 05:40:39 PM 33.9667 -118.0833 256° West 251 289 5,100 -1,475 Descending Southern California TRACON

Login

Don't have an account? Register now (free) for customized features, flight alerts, and more!